createdAt,value
2017-04-15T00:00:06.623Z,55.10
2017-04-15T00:01:06.316Z,55.30
2017-04-15T00:02:05.892Z,55.00
2017-04-15T00:03:05.956Z,55.20
2017-04-15T00:04:06.071Z,55.50
2017-04-15T00:05:05.677Z,55.60
2017-04-15T00:06:05.335Z,55.80
2017-04-15T00:07:05.248Z,55.60
2017-04-15T00:08:06.233Z,55.20
2017-04-15T00:09:06.590Z,54.80
2017-04-15T00:10:06.147Z,55.20
2017-04-15T00:11:06.548Z,55.60
2017-04-15T00:12:07.082Z,55.70
2017-04-15T00:13:06.687Z,55.30
2017-04-15T00:14:06.951Z,55.30
2017-04-15T00:15:06.735Z,55.10
2017-04-15T00:16:06.383Z,55.30
2017-04-15T00:17:07.067Z,55.20
2017-04-15T00:18:06.780Z,55.00
2017-04-15T00:19:06.395Z,54.90
2017-04-15T00:20:06.655Z,55.50
2017-04-15T00:21:06.459Z,55.50
2017-04-15T00:22:06.192Z,55.00
2017-04-15T00:23:05.832Z,55.00
2017-04-15T00:24:06.135Z,55.20
2017-04-15T00:25:06.059Z,55.00
2017-04-15T00:26:05.792Z,55.50
2017-04-15T00:27:05.347Z,55.30
2017-04-15T00:28:05.394Z,55.20
2017-04-15T00:29:05.107Z,54.90
2017-04-15T00:30:05.034Z,55.60
2017-04-15T00:31:04.601Z,55.20
2017-04-15T00:32:04.227Z,54.80
2017-04-15T00:33:03.951Z,54.60
2017-04-15T00:34:04.293Z,54.60
2017-04-15T00:35:03.875Z,54.60
2017-04-15T00:36:04.284Z,54.40
2017-04-15T00:37:04.803Z,54.40
2017-04-15T00:38:04.424Z,53.70
2017-04-15T00:39:04.383Z,54.00
2017-04-15T00:40:04.292Z,53.80
2017-04-15T00:41:03.993Z,53.60
2017-04-15T00:42:03.750Z,53.70
2017-04-15T00:43:03.303Z,54.10
2017-04-15T00:44:02.891Z,55.30
2017-04-15T00:45:03.527Z,55.40
2017-04-15T00:46:03.888Z,55.90
2017-04-15T00:47:03.475Z,56.30
2017-04-15T00:48:03.428Z,55.90
2017-04-15T00:49:03.827Z,56.20
2017-04-15T00:50:03.649Z,56.50
2017-04-15T00:51:03.294Z,56.10
2017-04-15T00:52:03.617Z,56.50
2017-04-15T00:53:03.139Z,56.90
2017-04-15T00:54:02.699Z,55.80
2017-04-15T00:55:02.590Z,55.90
2017-04-15T00:56:02.109Z,55.80
2017-04-15T00:57:01.668Z,56.00
2017-04-15T00:58:01.995Z,56.50
2017-04-15T00:59:01.783Z,55.90
2017-04-15T01:00:01.459Z,56.40
2017-04-15T01:01:01.183Z,56.80
2017-04-15T01:02:00.807Z,57.30
2017-04-15T01:03:00.398Z,57.40
2017-04-15T01:04:00.316Z,57.30
2017-04-15T01:04:59.979Z,56.80
2017-04-15T01:05:59.562Z,57.20
2017-04-15T01:06:59.215Z,57.60
2017-04-15T01:07:58.842Z,57.70
2017-04-15T01:08:58.396Z,57.40
2017-04-15T01:09:58.231Z,57.80
2017-04-15T01:10:57.847Z,56.90
2017-04-15T01:11:57.486Z,56.90
2017-04-15T01:12:57.780Z,57.60
2017-04-15T01:13:57.311Z,57.50
2017-04-15T01:14:56.855Z,57.00
2017-04-15T01:15:56.494Z,57.00
2017-04-15T01:16:57.167Z,57.30
2017-04-15T01:17:56.891Z,56.90
2017-04-15T01:18:57.114Z,57.00
2017-04-15T01:19:57.534Z,57.60
2017-04-15T01:20:57.167Z,57.80
2017-04-15T01:21:56.915Z,58.30
2017-04-15T01:23:56.470Z,57.50
2017-04-15T01:24:56.102Z,58.20
2017-04-15T01:25:55.676Z,58.30
2017-04-15T01:26:55.253Z,58.60
2017-04-15T01:27:54.794Z,58.60
2017-04-15T01:28:54.376Z,58.80
2017-04-15T01:29:53.967Z,58.90
2017-04-15T01:30:53.571Z,59.10
2017-04-15T01:31:53.080Z,59.40
2017-04-15T01:32:52.634Z,59.70
2017-04-15T01:33:52.221Z,59.50
2017-04-15T01:34:52.538Z,59.90
2017-04-15T01:35:52.394Z,59.70
2017-04-15T01:36:51.975Z,60.20
2017-04-15T01:37:52.351Z,60.70
2017-04-15T01:38:52.779Z,60.60
2017-04-15T01:39:52.344Z,61.60
2017-04-15T01:40:51.884Z,61.30
2017-04-15T01:41:51.436Z,59.70
2017-04-15T01:42:51.065Z,58.80
2017-04-15T01:43:51.012Z,59.30
2017-04-15T01:44:51.310Z,59.70
2017-04-15T01:45:50.878Z,60.10
2017-04-15T01:46:50.555Z,60.80
2017-04-15T01:47:50.187Z,61.00
2017-04-15T01:48:49.866Z,61.60
2017-04-15T01:49:50.228Z,62.00
2017-04-15T01:50:49.954Z,60.30
2017-04-15T01:51:49.583Z,60.20
2017-04-15T01:52:49.979Z,60.60
2017-04-15T01:53:49.578Z,61.20
2017-04-15T01:54:49.111Z,61.10
2017-04-15T01:55:48.766Z,61.30
2017-04-15T01:56:48.390Z,61.30
2017-04-15T01:57:48.011Z,60.80
2017-04-15T01:58:47.579Z,61.40
2017-04-15T01:59:47.212Z,61.70
2017-04-15T02:00:46.932Z,61.80
2017-04-15T02:01:46.655Z,61.90
2017-04-15T02:02:46.578Z,62.30
2017-04-15T02:03:46.177Z,62.50
2017-04-15T02:04:45.858Z,62.50
2017-04-15T02:05:45.595Z,62.10
2017-04-15T02:06:45.932Z,62.70
2017-04-15T02:07:45.595Z,63.00
2017-04-15T02:08:46.027Z,63.40
2017-04-15T02:09:46.391Z,63.20
2017-04-15T02:10:46.119Z,63.50
2017-04-15T02:11:46.145Z,63.40
2017-04-15T02:12:45.678Z,62.90
2017-04-15T02:13:45.232Z,63.30
2017-04-15T02:14:44.819Z,63.40
2017-04-15T02:15:44.447Z,63.90
2017-04-15T02:16:44.726Z,63.50
2017-04-15T02:17:44.311Z,63.80
2017-04-15T02:18:44.342Z,63.80
2017-04-15T02:19:44.051Z,63.90
2017-04-15T02:20:43.978Z,63.90
2017-04-15T02:21:43.555Z,65.10
2017-04-15T02:22:43.943Z,64.50
2017-04-15T02:23:43.507Z,64.70
2017-04-15T02:24:43.055Z,64.50
2017-04-15T02:25:42.751Z,64.40
2017-04-15T02:27:42.353Z,64.80
2017-04-15T02:28:41.920Z,63.80
2017-04-15T02:29:41.459Z,63.90
2017-04-15T02:30:40.967Z,64.20
2017-04-15T02:31:41.339Z,64.30
2017-04-15T02:32:41.026Z,64.60
2017-04-15T02:33:40.626Z,64.80
2017-04-15T02:34:40.164Z,64.80
2017-04-15T02:35:39.703Z,65.20
2017-04-15T02:36:39.250Z,65.20
2017-04-15T02:37:38.842Z,65.20
2017-04-15T02:38:38.404Z,66.00
2017-04-15T02:39:38.235Z,64.90
2017-04-15T02:40:37.827Z,64.50
2017-04-15T02:41:37.391Z,64.50
2017-04-15T02:42:36.940Z,64.70
2017-04-15T02:43:36.880Z,64.80
2017-04-15T02:44:36.862Z,64.90
2017-04-15T02:45:37.187Z,65.30
2017-04-15T02:46:37.569Z,64.40
2017-04-15T02:47:37.312Z,64.40
2017-04-15T02:48:36.871Z,64.70
2017-04-15T02:49:36.558Z,64.70
2017-04-15T02:50:36.723Z,64.60
2017-04-15T02:51:36.467Z,64.50
2017-04-15T02:52:36.042Z,64.50
2017-04-15T02:53:35.588Z,64.50
2017-04-15T02:54:35.139Z,64.40
2017-04-15T02:55:34.679Z,64.20
2017-04-15T02:56:34.249Z,64.00
2017-04-15T02:57:34.651Z,64.00
2017-04-15T02:58:34.251Z,64.10
2017-04-15T02:59:33.971Z,64.20
2017-04-15T03:00:33.687Z,64.10
2017-04-15T03:01:33.223Z,64.00
2017-04-15T03:02:33.310Z,63.90
2017-04-15T03:03:32.903Z,64.00
2017-04-15T03:04:32.764Z,64.20
2017-04-15T03:05:32.312Z,64.50
2017-04-15T03:06:32.702Z,64.40
2017-04-15T03:07:32.441Z,64.50
2017-04-15T03:08:32.731Z,64.40
2017-04-15T03:09:33.374Z,64.50
2017-04-15T03:10:33.866Z,64.60
2017-04-15T03:11:33.779Z,64.50
2017-04-15T03:12:33.391Z,64.40
2017-04-15T03:13:33.698Z,64.50
2017-04-15T03:14:33.428Z,64.40
2017-04-15T03:15:33.058Z,64.70
2017-04-15T03:16:32.643Z,64.30
2017-04-15T03:17:32.184Z,64.60
2017-04-15T03:18:32.459Z,64.70
2017-04-15T03:19:31.988Z,64.40
2017-04-15T03:20:31.571Z,64.40
2017-04-15T03:21:31.111Z,64.30
2017-04-15T03:22:30.795Z,64.40
2017-04-15T03:23:30.355Z,64.40
2017-04-15T03:24:29.934Z,64.60
2017-04-15T03:25:29.542Z,64.60
2017-04-15T03:26:29.222Z,64.80
2017-04-15T03:27:28.840Z,65.00
2017-04-15T03:28:28.417Z,64.80
2017-04-15T03:29:27.975Z,64.80
2017-04-15T03:30:28.298Z,64.80
2017-04-15T03:31:28.578Z,64.70
2017-04-15T03:32:28.122Z,64.80
2017-04-15T03:33:28.787Z,64.70
2017-04-15T03:34:28.315Z,64.60
2017-04-15T03:35:27.859Z,64.60
2017-04-15T03:36:27.659Z,64.70
2017-04-15T03:37:27.351Z,64.70
2017-04-15T03:38:26.906Z,64.80
2017-04-15T03:39:26.456Z,64.90
2017-04-15T03:40:25.974Z,65.00
2017-04-15T03:41:25.587Z,65.60
2017-04-15T03:42:25.858Z,66.20
2017-04-15T03:43:25.412Z,66.70
2017-04-15T03:44:25.086Z,66.80
2017-04-15T03:45:24.685Z,66.70
2017-04-15T03:46:24.210Z,66.60
2017-04-15T03:47:23.752Z,66.60
2017-04-15T03:48:23.491Z,66.50
2017-04-15T03:49:23.048Z,66.60
2017-04-15T03:50:22.636Z,66.60
2017-04-15T03:51:22.278Z,67.10
2017-04-15T03:52:22.610Z,67.40
2017-04-15T03:53:22.191Z,67.50
2017-04-15T03:54:21.778Z,67.90
2017-04-15T03:55:21.863Z,68.00
2017-04-15T03:56:23.282Z,67.40
2017-04-15T03:57:23.012Z,67.60
2017-04-15T03:58:22.571Z,67.60
2017-04-15T03:59:22.916Z,67.40
2017-04-15T04:00:22.514Z,67.80
2017-04-15T04:01:22.079Z,67.80
2017-04-15T04:02:21.642Z,67.50
2017-04-15T04:03:21.162Z,67.30
2017-04-15T04:04:20.719Z,67.30
2017-04-15T04:05:20.283Z,67.40
2017-04-15T04:06:19.839Z,67.40
2017-04-15T04:07:19.479Z,68.00
2017-04-15T04:08:19.081Z,67.90
2017-04-15T04:09:18.653Z,68.30
2017-04-15T04:10:18.206Z,68.20
2017-04-15T04:11:18.606Z,68.00
2017-04-15T04:12:18.149Z,67.90
2017-04-15T04:13:17.684Z,67.90
2017-04-15T04:14:17.283Z,67.90
2017-04-15T04:15:18.275Z,68.70
2017-04-15T04:16:17.789Z,67.40
2017-04-15T04:17:17.308Z,67.90
2017-04-15T04:18:17.332Z,67.90
2017-04-15T04:19:16.898Z,67.70
2017-04-15T04:20:16.502Z,68.50
2017-04-15T04:21:16.138Z,67.80
2017-04-15T04:22:15.688Z,68.00
2017-04-15T04:23:15.426Z,67.90
2017-04-15T04:24:14.978Z,67.80
2017-04-15T04:25:15.239Z,67.50
2017-04-15T04:26:15.183Z,67.60
2017-04-15T04:27:14.742Z,68.00
2017-04-15T04:28:14.319Z,68.40
2017-04-15T04:29:13.855Z,68.60
2017-04-15T04:30:13.575Z,68.80
2017-04-15T04:31:13.146Z,68.90
2017-04-15T04:32:12.727Z,69.20
2017-04-15T04:33:12.324Z,69.30
2017-04-15T04:34:11.923Z,69.30
2017-04-15T04:35:11.462Z,69.80
2017-04-15T04:36:11.773Z,69.80
2017-04-15T04:37:11.551Z,69.30
2017-04-15T04:38:11.136Z,69.60
2017-04-15T04:39:10.696Z,69.70
2017-04-15T04:40:10.316Z,70.50
2017-04-15T04:41:09.866Z,69.50
2017-04-15T04:42:09.429Z,69.80
2017-04-15T04:43:08.975Z,69.90
2017-04-15T04:44:08.500Z,69.80
2017-04-15T04:45:08.060Z,70.00
2017-04-15T04:46:08.798Z,70.00
2017-04-15T04:47:08.428Z,70.10
2017-04-15T04:48:08.040Z,70.50
2017-04-15T04:49:07.626Z,70.60
2017-04-15T04:50:07.158Z,70.60
2017-04-15T04:51:06.867Z,69.90
2017-04-15T04:52:06.459Z,69.80
2017-04-15T04:53:06.826Z,70.20
2017-04-15T04:54:06.371Z,70.20
2017-04-15T04:55:06.053Z,70.10
2017-04-15T04:56:05.991Z,70.00
2017-04-15T04:57:05.702Z,69.90
2017-04-15T04:58:05.979Z,69.90
2017-04-15T04:59:05.609Z,70.20
2017-04-15T05:00:05.187Z,70.10
2017-04-15T05:01:05.166Z,70.20
2017-04-15T05:02:04.738Z,70.50
2017-04-15T05:03:04.389Z,70.30
2017-04-15T05:04:04.227Z,69.90
2017-04-15T05:05:04.696Z,69.80
2017-04-15T05:06:04.416Z,69.90
2017-04-15T05:07:04.069Z,70.00
2017-04-15T05:08:03.750Z,70.10
2017-04-15T05:09:05.264Z,69.70
2017-04-15T05:10:04.876Z,69.60
2017-04-15T05:11:05.159Z,69.50
2017-04-15T05:12:04.763Z,69.80
2017-04-15T05:13:04.703Z,69.60
2017-04-15T05:14:04.315Z,69.80
2017-04-15T05:15:04.177Z,69.40
2017-04-15T05:16:03.700Z,69.50
2017-04-15T05:17:03.302Z,69.40
2017-04-15T05:18:02.930Z,69.10
2017-04-15T05:19:02.499Z,68.90
2017-04-15T05:20:02.093Z,68.80
2017-04-15T05:21:01.643Z,67.80
2017-04-15T05:22:01.211Z,67.50
2017-04-15T05:23:00.775Z,67.50
2017-04-15T05:24:00.804Z,67.40
2017-04-15T05:25:00.343Z,66.90
2017-04-15T05:25:59.888Z,66.40
2017-04-15T05:26:59.407Z,66.60
2017-04-15T05:27:59.099Z,65.90
2017-04-15T05:28:58.655Z,66.00
2017-04-15T05:29:58.227Z,65.70
2017-04-15T05:30:57.763Z,65.60
2017-04-15T05:31:57.314Z,66.00
2017-04-15T05:32:57.157Z,66.20
2017-04-15T05:33:57.023Z,66.10
2017-04-15T05:34:56.599Z,65.10
2017-04-15T05:35:56.171Z,64.60
2017-04-15T05:36:55.823Z,62.00
2017-04-15T05:37:55.455Z,64.90
2017-04-15T05:38:55.883Z,64.10
2017-04-15T05:39:55.496Z,64.00
2017-04-15T05:40:55.707Z,63.60
2017-04-15T05:41:55.238Z,62.80
2017-04-15T05:42:55.074Z,63.40
2017-04-15T05:43:54.630Z,63.40
2017-04-15T05:44:54.180Z,62.50
2017-04-15T05:45:53.807Z,61.80
2017-04-15T05:46:53.393Z,62.30
2017-04-15T05:47:52.928Z,62.00
2017-04-15T05:48:52.481Z,61.30
2017-04-15T05:49:52.035Z,60.80
2017-04-15T05:50:51.663Z,60.70
2017-04-15T05:51:51.330Z,60.10
2017-04-15T05:52:50.967Z,60.80
2017-04-15T05:53:50.546Z,60.90
2017-04-15T05:54:50.147Z,60.50
2017-04-15T05:55:49.687Z,61.20
2017-04-15T05:56:49.353Z,61.90
2017-04-15T05:57:49.535Z,62.00
2017-04-15T05:58:49.096Z,61.80
2017-04-15T05:59:48.642Z,62.20
2017-04-15T06:00:48.261Z,62.10
2017-04-15T06:01:47.806Z,61.40
2017-04-15T06:02:47.532Z,61.10
2017-04-15T06:03:47.140Z,62.00
2017-04-15T06:04:46.671Z,61.80
2017-04-15T06:05:46.223Z,61.10
2017-04-15T06:06:45.855Z,61.00
2017-04-15T06:07:45.455Z,60.30
2017-04-15T06:08:45.739Z,60.00
2017-04-15T06:09:45.316Z,59.50
2017-04-15T06:10:44.907Z,59.40
2017-04-15T06:11:45.127Z,59.70
2017-04-15T06:12:44.814Z,59.50
2017-04-15T06:13:44.425Z,59.20
2017-04-15T06:14:43.982Z,59.60
2017-04-15T06:15:43.578Z,58.80
2017-04-15T06:16:43.114Z,58.90
2017-04-15T06:17:42.846Z,58.70
2017-04-15T06:18:42.427Z,58.80
2017-04-15T06:19:41.948Z,58.90
2017-04-15T06:20:41.530Z,57.90
2017-04-15T06:21:41.178Z,58.30
2017-04-15T06:22:40.770Z,58.40
2017-04-15T06:23:40.977Z,58.80
2017-04-15T06:24:40.707Z,59.20
2017-04-15T06:25:40.238Z,59.40
2017-04-15T06:26:39.943Z,58.10
2017-04-15T06:27:39.515Z,58.00
2017-04-15T06:28:39.087Z,58.10
2017-04-15T06:29:38.719Z,58.70
2017-04-15T06:30:38.278Z,58.20
2017-04-15T06:31:37.829Z,58.80
2017-04-15T06:32:37.526Z,58.50
2017-04-15T06:33:37.072Z,58.60
2017-04-15T06:34:37.451Z,57.70
2017-04-15T06:35:37.754Z,58.10
2017-04-15T06:36:37.331Z,58.50
2017-04-15T06:37:37.117Z,57.90
2017-04-15T06:38:36.832Z,57.90
2017-04-15T06:39:36.379Z,58.10
2017-04-15T06:40:35.983Z,57.70
2017-04-15T06:41:35.724Z,57.80
2017-04-15T06:42:35.307Z,57.40
2017-04-15T06:43:34.940Z,58.60
2017-04-15T06:44:35.199Z,58.20
2017-04-15T06:45:34.759Z,58.40
2017-04-15T06:46:34.404Z,58.50
2017-04-15T06:47:34.162Z,59.00
2017-04-15T06:48:34.500Z,58.20
2017-04-15T06:49:34.651Z,58.80
2017-04-15T06:50:34.288Z,58.20
2017-04-15T06:51:33.823Z,58.70
2017-04-15T06:52:33.455Z,57.90
2017-04-15T06:53:33.047Z,58.10
2017-04-15T06:54:32.610Z,57.80
2017-04-15T06:55:32.181Z,58.10
2017-04-15T06:56:31.730Z,58.00
2017-04-15T06:57:31.264Z,58.30
2017-04-15T06:58:30.791Z,58.00
2017-04-15T06:59:30.459Z,57.20
2017-04-15T07:00:30.059Z,57.10
2017-04-15T07:01:29.740Z,56.30
2017-04-15T07:02:29.455Z,55.20
2017-04-15T07:03:29.134Z,54.80
2017-04-15T07:04:28.691Z,54.80
2017-04-15T07:05:28.323Z,55.90
2017-04-15T07:06:27.868Z,55.60
2017-04-15T07:07:27.404Z,56.00
2017-04-15T07:08:26.971Z,56.20
2017-04-15T07:09:26.516Z,56.20
2017-04-15T07:10:26.153Z,56.00
2017-04-15T07:11:25.691Z,54.40
2017-04-15T07:12:25.247Z,54.70
2017-04-15T07:13:24.892Z,55.60
2017-04-15T07:14:24.459Z,55.00
2017-04-15T07:15:24.071Z,54.90
2017-04-15T07:16:23.626Z,54.70
2017-04-15T07:17:23.161Z,55.20
2017-04-15T07:18:22.684Z,55.20
2017-04-15T07:19:22.306Z,55.60
2017-04-15T07:20:21.861Z,54.60
2017-04-15T07:21:21.543Z,55.90
2017-04-15T07:22:21.128Z,54.40
2017-04-15T07:23:20.667Z,54.80
2017-04-15T07:24:20.332Z,55.30
2017-04-15T07:25:19.896Z,55.90
2017-04-15T07:26:19.471Z,56.70
2017-04-15T07:27:19.103Z,56.40
2017-04-15T07:28:18.695Z,56.00
2017-04-15T07:29:18.283Z,56.20
2017-04-15T07:30:17.822Z,55.50
2017-04-15T07:31:17.464Z,55.20
2017-04-15T07:32:17.047Z,53.60
2017-04-15T07:33:16.639Z,53.10
2017-04-15T07:34:16.292Z,53.10
2017-04-15T07:35:15.897Z,53.80
2017-04-15T07:36:15.467Z,52.00
2017-04-15T07:37:15.055Z,52.00
2017-04-15T07:38:14.614Z,51.50
2017-04-15T07:39:14.183Z,51.30
2017-04-15T07:40:13.738Z,51.70
2017-04-15T07:41:13.368Z,50.70
2017-04-15T07:42:12.987Z,51.30
2017-04-15T07:43:12.551Z,50.80
2017-04-15T07:44:12.172Z,51.00
2017-04-15T07:45:12.435Z,50.70
2017-04-15T07:46:12.027Z,49.60
2017-04-15T07:47:11.591Z,49.80
2017-04-15T07:48:11.151Z,50.30
2017-04-15T07:49:10.764Z,50.00
2017-04-15T07:50:10.383Z,50.50
2017-04-15T07:51:09.983Z,50.50
2017-04-15T07:52:09.586Z,50.70
2017-04-15T07:53:09.595Z,50.80
2017-04-15T07:54:10.001Z,50.40
2017-04-15T07:55:09.590Z,50.30
2017-04-15T07:56:09.175Z,50.70
2017-04-15T07:57:08.712Z,50.90
2017-04-15T07:58:08.357Z,50.00
2017-04-15T07:59:07.951Z,49.30
2017-04-15T08:00:07.631Z,48.90
2017-04-15T08:01:07.267Z,49.10
2017-04-15T08:02:06.828Z,49.10
2017-04-15T08:03:07.059Z,48.80
2017-04-15T08:04:06.674Z,49.30
2017-04-15T08:05:06.249Z,50.00
2017-04-15T08:06:05.815Z,49.90
2017-04-15T08:07:05.451Z,50.40
2017-04-15T08:08:05.059Z,50.30
2017-04-15T08:09:05.081Z,50.00
2017-04-15T08:10:04.693Z,50.30
2017-04-15T08:11:04.251Z,50.90
2017-04-15T08:12:03.884Z,49.70
2017-04-15T08:13:03.430Z,50.30
2017-04-15T08:14:02.988Z,51.10
2017-04-15T08:15:02.567Z,50.30
2017-04-15T08:16:02.195Z,50.90
2017-04-15T08:17:01.791Z,50.30
2017-04-15T08:18:01.539Z,50.60
2017-04-15T08:19:01.892Z,50.60
2017-04-15T08:20:01.501Z,51.20
2017-04-15T08:21:01.257Z,50.20
2017-04-15T08:22:00.856Z,51.00
2017-04-15T08:23:01.209Z,51.10
2017-04-15T08:24:00.800Z,51.00
2017-04-15T08:25:01.023Z,51.40
2017-04-15T08:26:00.598Z,52.10
2017-04-15T08:27:00.730Z,51.30
2017-04-15T08:28:00.362Z,51.10
2017-04-15T08:28:59.919Z,51.20
2017-04-15T08:30:00.171Z,51.70
2017-04-15T08:30:59.831Z,51.70
2017-04-15T08:31:59.428Z,51.20
2017-04-15T08:32:59.056Z,51.40
2017-04-15T08:33:59.335Z,51.50
2017-04-15T08:34:59.024Z,51.40
2017-04-15T08:35:58.598Z,51.70
2017-04-15T08:36:58.215Z,51.70
2017-04-15T08:37:57.979Z,50.70
2017-04-15T08:38:57.540Z,50.70
2017-04-15T08:39:57.200Z,51.00
2017-04-15T08:40:56.830Z,51.30
2017-04-15T08:41:56.431Z,51.50
2017-04-15T08:42:55.987Z,51.60
2017-04-15T08:43:55.559Z,51.70
2017-04-15T08:44:55.131Z,50.70
2017-04-15T08:45:54.704Z,50.90
2017-04-15T08:46:54.371Z,50.80
2017-04-15T08:47:53.972Z,51.00
2017-04-15T08:48:53.568Z,51.20
2017-04-15T08:49:53.176Z,50.80
2017-04-15T08:50:53.511Z,50.40
2017-04-15T08:51:53.213Z,49.90
2017-04-15T08:52:53.008Z,49.90
2017-04-15T08:53:52.659Z,50.40
2017-04-15T08:54:52.321Z,50.70
2017-04-15T08:55:51.875Z,51.30
2017-04-15T08:56:51.529Z,49.80
2017-04-15T08:57:51.090Z,49.70
2017-04-15T08:58:50.886Z,49.30
2017-04-15T08:59:51.212Z,48.70
2017-04-15T09:00:51.557Z,49.10
2017-04-15T09:01:52.050Z,49.40
2017-04-15T09:02:51.668Z,49.40
2017-04-15T09:03:51.207Z,49.20
2017-04-15T09:04:50.842Z,49.80
2017-04-15T09:05:50.635Z,50.10
2017-04-15T09:06:50.944Z,50.40
2017-04-15T09:07:51.304Z,49.40
2017-04-15T09:08:51.015Z,49.90
2017-04-15T09:09:50.632Z,51.00
2017-04-15T09:10:50.351Z,51.60
2017-04-15T09:11:50.682Z,51.00
2017-04-15T09:12:50.288Z,49.70
2017-04-15T09:13:50.808Z,48.50
2017-04-15T09:14:50.502Z,47.50
2017-04-15T09:15:50.867Z,47.90
2017-04-15T09:16:50.611Z,47.40
2017-04-15T09:17:50.948Z,48.40
2017-04-15T09:18:50.598Z,47.60
2017-04-15T09:19:50.991Z,47.60
2017-04-15T09:20:50.683Z,47.80
2017-04-15T09:21:50.319Z,48.20
2017-04-15T09:22:50.091Z,48.30
2017-04-15T09:23:49.675Z,48.80
2017-04-15T09:24:50.091Z,49.20
2017-04-15T09:25:49.686Z,48.10
2017-04-15T09:26:49.226Z,48.90
2017-04-15T09:27:48.857Z,48.10
2017-04-15T09:28:49.361Z,47.90
2017-04-15T09:29:48.908Z,47.10
2017-04-15T09:30:48.546Z,46.70
2017-04-15T09:31:48.163Z,46.20
2017-04-15T09:32:48.471Z,46.20
2017-04-15T09:33:48.137Z,46.70
2017-04-15T09:34:48.372Z,47.10
2017-04-15T09:35:48.644Z,46.80
2017-04-15T09:36:48.167Z,46.80
2017-04-15T09:37:47.839Z,47.20
2017-04-15T09:38:47.446Z,47.50
2017-04-15T09:39:46.997Z,47.50
2017-04-15T09:40:47.310Z,47.30
2017-04-15T09:41:47.815Z,47.20
2017-04-15T09:42:47.495Z,47.10
2017-04-15T09:43:47.218Z,47.30
2017-04-15T09:44:46.769Z,46.80
2017-04-15T09:45:46.367Z,47.30
2017-04-15T09:46:46.000Z,47.80
2017-04-15T09:47:45.552Z,47.60
2017-04-15T09:48:45.154Z,47.80
2017-04-15T09:49:44.895Z,47.40
2017-04-15T09:50:44.477Z,47.20
2017-04-15T09:51:44.742Z,48.20
2017-04-15T09:52:44.485Z,47.30
2017-04-15T09:53:44.324Z,47.40
2017-04-15T09:54:43.924Z,47.00
2017-04-15T09:55:43.580Z,46.70
2017-04-15T09:56:43.180Z,46.80
2017-04-15T09:57:43.527Z,46.70
2017-04-15T09:58:43.220Z,47.50
2017-04-15T09:59:42.826Z,46.60
2017-04-15T10:00:43.173Z,47.80
2017-04-15T10:01:43.535Z,46.60
2017-04-15T10:02:43.119Z,46.20
2017-04-15T10:03:42.702Z,46.40
2017-04-15T10:04:42.274Z,46.30
2017-04-15T10:05:42.052Z,46.20
2017-04-15T10:06:41.675Z,45.90
2017-04-15T10:07:41.224Z,45.80
2017-04-15T10:08:40.847Z,47.70
2017-04-15T10:09:40.430Z,46.30
2017-04-15T10:10:40.147Z,47.70
2017-04-15T10:11:39.711Z,47.80
2017-04-15T10:12:39.286Z,46.60
2017-04-15T10:13:38.900Z,46.30
2017-04-15T10:14:38.951Z,45.30
2017-04-15T10:15:38.535Z,46.00
2017-04-15T10:16:38.055Z,45.30
2017-04-15T10:17:38.634Z,45.00
2017-04-15T10:18:38.190Z,44.40
2017-04-15T10:19:37.775Z,44.80
2017-04-15T10:20:37.323Z,45.40
2017-04-15T10:21:36.894Z,44.90
2017-04-15T10:22:36.462Z,45.00
2017-04-15T10:23:35.991Z,45.40
2017-04-15T10:24:35.575Z,45.10
2017-04-15T10:25:35.169Z,45.90
2017-04-15T10:26:34.739Z,45.10
2017-04-15T10:27:34.760Z,44.90
2017-04-15T10:28:34.371Z,44.80
2017-04-15T10:29:34.120Z,45.00
2017-04-15T10:30:33.699Z,45.50
2017-04-15T10:31:33.263Z,45.30
2017-04-15T10:32:32.851Z,44.90
2017-04-15T10:33:32.370Z,44.90
2017-04-15T10:34:31.968Z,45.40
2017-04-15T10:35:31.640Z,45.00
2017-04-15T10:36:31.274Z,44.50
2017-04-15T10:37:31.267Z,44.60
2017-04-15T10:38:30.823Z,44.50
2017-04-15T10:39:30.364Z,44.90
2017-04-15T10:40:30.117Z,45.30
2017-04-15T10:41:29.687Z,45.40
2017-04-15T10:42:29.291Z,45.80
2017-04-15T10:43:28.856Z,45.60
2017-04-15T10:44:29.083Z,46.20
2017-04-15T10:45:28.685Z,46.50
2017-04-15T10:46:28.347Z,46.00
2017-04-15T10:47:27.891Z,46.90
2017-04-15T10:48:27.530Z,46.50
2017-04-15T10:49:27.077Z,46.70
2017-04-15T10:50:26.596Z,46.60
2017-04-15T10:51:26.190Z,46.60
2017-04-15T10:52:25.743Z,46.30
2017-04-15T10:53:25.408Z,45.90
2017-04-15T10:54:24.950Z,47.00
2017-04-15T10:55:24.513Z,45.60
2017-04-15T10:56:24.050Z,46.00
2017-04-15T10:57:25.472Z,46.70
2017-04-15T10:58:26.592Z,45.30
2017-04-15T10:59:27.525Z,45.50
2017-04-15T11:00:28.778Z,45.60
2017-04-15T11:01:30.091Z,45.40
2017-04-15T11:02:30.725Z,45.60
2017-04-15T11:03:31.857Z,45.10
2017-04-15T11:04:33.301Z,45.50
2017-04-15T11:05:34.407Z,45.80
2017-04-15T11:06:35.338Z,45.80
2017-04-15T11:07:36.347Z,46.10
2017-04-15T11:08:37.349Z,46.50
2017-04-15T11:09:38.313Z,46.20
2017-04-15T11:10:39.317Z,45.80
2017-04-15T11:11:40.600Z,46.40
2017-04-15T11:12:41.643Z,46.20
2017-04-15T11:13:42.461Z,46.30
2017-04-15T11:14:43.429Z,45.80
2017-04-15T11:15:44.374Z,46.00
2017-04-15T11:16:45.919Z,45.70
2017-04-15T11:17:46.877Z,45.70
2017-04-15T11:18:47.656Z,45.10
2017-04-15T11:19:48.642Z,45.00
2017-04-15T11:20:49.503Z,45.30
2017-04-15T11:21:50.523Z,45.80
2017-04-15T11:22:51.504Z,45.90
2017-04-15T11:23:52.611Z,45.50
2017-04-15T11:24:53.653Z,45.20
2017-04-15T11:25:54.747Z,45.60
2017-04-15T11:26:55.700Z,45.10
2017-04-15T11:27:56.679Z,45.60
2017-04-15T11:28:57.685Z,45.50
2017-04-15T11:29:58.780Z,45.40
2017-04-15T11:30:59.842Z,45.60
2017-04-15T11:32:00.882Z,46.00
2017-04-15T11:33:01.890Z,45.60
2017-04-15T11:34:02.915Z,45.10
2017-04-15T11:35:04.049Z,45.10
2017-04-15T11:36:05.007Z,44.20
2017-04-15T11:37:05.953Z,45.00
2017-04-15T11:38:06.922Z,44.80
2017-04-15T11:39:07.870Z,45.40
2017-04-15T11:40:08.810Z,45.50
2017-04-15T11:41:09.681Z,45.90
2017-04-15T11:42:10.906Z,45.70
2017-04-15T11:43:11.990Z,45.20
2017-04-15T11:44:12.997Z,44.60
2017-04-15T11:45:13.953Z,44.40
2017-04-15T11:46:15.569Z,43.90
2017-04-15T11:47:16.391Z,44.60
2017-04-15T11:48:17.582Z,44.40
2017-04-15T11:49:18.862Z,45.90
2017-04-15T11:50:19.900Z,45.30
2017-04-15T11:51:20.864Z,44.30
2017-04-15T11:52:21.747Z,44.70
2017-04-15T11:53:22.767Z,44.70
2017-04-15T11:54:24.317Z,45.20
2017-04-15T11:55:23.880Z,44.60
2017-04-15T11:56:23.442Z,44.80
2017-04-15T11:57:24.566Z,45.40
2017-04-15T11:58:25.612Z,46.70
2017-04-15T11:59:27.177Z,46.30
2017-04-15T12:00:28.270Z,46.40
2017-04-15T12:01:29.216Z,47.60
2017-04-15T12:02:30.326Z,46.20
2017-04-15T12:03:31.579Z,47.40
2017-04-15T12:04:32.613Z,46.80
2017-04-15T12:05:33.884Z,46.40
2017-04-15T12:06:34.941Z,46.50
2017-04-15T12:07:35.789Z,46.70
2017-04-15T12:08:36.733Z,47.30
2017-04-15T12:09:37.970Z,46.20
2017-04-15T12:10:38.983Z,46.60
2017-04-15T12:11:39.879Z,46.80
2017-04-15T12:12:40.821Z,47.10
2017-04-15T12:13:42.299Z,47.30
2017-04-15T12:14:43.235Z,47.60
2017-04-15T12:15:44.267Z,48.60
2017-04-15T12:16:45.126Z,48.60
2017-04-15T12:17:46.176Z,48.70
2017-04-15T12:18:47.109Z,48.90
2017-04-15T12:19:48.279Z,48.90
2017-04-15T12:20:49.185Z,48.50
2017-04-15T12:21:50.076Z,48.50
2017-04-15T12:22:51.103Z,48.20
2017-04-15T12:23:52.395Z,48.00
2017-04-15T12:24:53.312Z,47.90
2017-04-15T12:25:54.261Z,47.70
2017-04-15T12:26:55.043Z,48.10
2017-04-15T12:27:55.924Z,48.70
2017-04-15T12:28:56.794Z,47.30
2017-04-15T12:29:57.612Z,47.10
2017-04-15T12:30:58.521Z,46.90
2017-04-15T12:31:59.351Z,47.30
2017-04-15T12:33:00.342Z,47.30
2017-04-15T12:34:01.514Z,46.10
2017-04-15T12:35:02.538Z,45.80
2017-04-15T12:36:03.502Z,46.10
2017-04-15T12:37:04.375Z,46.00
2017-04-15T12:38:05.301Z,47.00
2017-04-15T12:39:06.323Z,45.60
2017-04-15T12:40:07.180Z,45.60
2017-04-15T12:41:08.082Z,45.30
2017-04-15T12:42:09.073Z,45.40
2017-04-15T12:43:10.006Z,45.30
2017-04-15T12:44:11.003Z,45.00
2017-04-15T12:45:11.885Z,45.50
2017-04-15T12:46:12.752Z,45.90
2017-04-15T12:47:13.882Z,45.90
2017-04-15T12:48:14.694Z,46.50
2017-04-15T12:49:16.944Z,47.90
2017-04-15T12:50:17.965Z,46.40
2017-04-15T12:51:18.975Z,45.10
2017-04-15T12:52:19.797Z,45.00
2017-04-15T12:53:20.644Z,45.40